sensor_id;sensor_type;location;lat;lon;timestamp;pressure;altitude;pressure_sealevel;temperature;humidity
2397;BME280;1209;48.410;9.054;2023-02-21T00:02:18;96732.41;;;5.07;100.00
2397;BME280;1209;48.410;9.054;2023-02-21T00:05:02;96732.25;;;4.78;100.00
2397;BME280;1209;48.410;9.054;2023-02-21T00:07:46;96726.88;;;4.91;100.00
2397;BME280;1209;48.410;9.054;2023-02-21T00:10:30;96726.50;;;4.74;100.00
2397;BME280;1209;48.410;9.054;2023-02-21T00:13:14;96723.72;;;4.66;100.00
2397;BME280;1209;48.410;9.054;2023-02-21T00:15:58;96718.63;;;4.76;100.00
2397;BME280;1209;48.410;9.054;2023-02-21T00:18:42;96719.44;;;4.77;100.00
2397;BME280;1209;48.410;9.054;2023-02-21T00:21:29;96723.47;;;4.90;100.00
2397;BME280;1209;48.410;9.054;2023-02-21T00:24:15;96721.66;;;4.81;100.00
2397;BME280;1209;48.410;9.054;2023-02-21T00:26:59;96715.56;;;4.71;100.00
2397;BME280;1209;48.410;9.054;2023-02-21T00:29:43;96717.13;;;4.73;100.00
2397;BME280;1209;48.410;9.054;2023-02-21T00:32:27;96715.56;;;4.71;100.00
2397;BME280;1209;48.410;9.054;2023-02-21T00:35:11;96706.44;;;4.67;100.00
2397;BME280;1209;48.410;9.054;2023-02-21T00:37:54;96708.28;;;4.76;100.00
2397;BME280;1209;48.410;9.054;2023-02-21T00:40:38;96700.69;;;4.84;100.00
2397;BME280;1209;48.410;9.054;2023-02-21T00:43:29;96697.72;;;4.89;100.00
2397;BME280;1209;48.410;9.054;2023-02-21T00:46:14;96703.06;;;4.97;100.00
2397;BME280;1209;48.410;9.054;2023-02-21T00:48:58;96705.47;;;4.89;100.00
2397;BME280;1209;48.410;9.054;2023-02-21T00:51:42;96692.25;;;4.82;100.00
2397;BME280;1209;48.410;9.054;2023-02-21T00:54:26;96687.72;;;4.54;100.00
2397;BME280;1209;48.410;9.054;2023-02-21T00:57:09;96702.16;;;4.56;100.00
2397;BME280;1209;48.410;9.054;2023-02-21T00:59:53;96700.13;;;4.39;100.00
2397;BME280;1209;48.410;9.054;2023-02-21T01:02:37;96695.47;;;4.54;100.00
2397;BME280;1209;48.410;9.054;2023-02-21T01:05:21;96693.00;;;4.52;100.00
2397;BME280;1209;48.410;9.054;2023-02-21T01:08:05;96685.81;;;4.56;100.00
2397;BME280;1209;48.410;9.054;2023-02-21T01:10:49;96689.84;;;4.28;100.00
2397;BME280;1209;48.410;9.054;2023-02-21T01:13:33;96689.53;;;4.42;100.00
2397;BME280;1209;48.410;9.054;2023-02-21T01:16:17;96686.44;;;4.27;100.00
2397;BME280;1209;48.410;9.054;2023-02-21T01:19:00;96687.97;;;4.30;100.00
2397;BME280;1209;48.410;9.054;2023-02-21T01:21:44;96690.19;;;4.23;100.00
2397;BME280;1209;48.410;9.054;2023-02-21T01:24:28;96688.69;;;4.21;100.00
2397;BME280;1209;48.410;9.054;2023-02-21T01:27:12;96670.72;;;3.98;100.00
2397;BME280;1209;48.410;9.054;2023-02-21T01:29:56;96683.19;;;4.14;100.00
2397;BME280;1209;48.410;9.054;2023-02-21T01:32:40;96683.06;;;4.16;100.00
2397;BME280;1209;48.410;9.054;2023-02-21T01:35:24;96670.53;;;4.11;100.00
2397;BME280;1209;48.410;9.054;2023-02-21T01:38:08;96682.81;;;4.19;100.00
2397;BME280;1209;48.410;9.054;2023-02-21T01:40:52;96685.09;;;4.12;100.00
2397;BME280;1209;48.410;9.054;2023-02-21T01:43:36;96688.22;;;3.95;100.00
2397;BME280;1209;48.410;9.054;2023-02-21T01:46:20;96686.00;;;3.90;100.00
2397;BME280;1209;48.410;9.054;2023-02-21T01:49:09;96675.81;;;3.89;100.00
2397;BME280;1209;48.410;9.054;2023-02-21T01:51:56;96669.81;;;3.88;100.00
2397;BME280;1209;48.410;9.054;2023-02-21T01:54:43;96675.13;;;3.75;100.00
2397;BME280;1209;48.410;9.054;2023-02-21T01:57:29;96668.09;;;3.66;100.00
2397;BME280;1209;48.410;9.054;2023-02-21T02:00:15;96670.44;;;3.81;100.00
2397;BME280;1209;48.410;9.054;2023-02-21T02:03:02;96668.44;;;3.73;100.00
2397;BME280;1209;48.410;9.054;2023-02-21T02:05:49;96665.03;;;3.84;100.00
2397;BME280;1209;48.410;9.054;2023-02-21T02:08:34;96663.44;;;3.60;100.00
2397;BME280;1209;48.410;9.054;2023-02-21T02:11:41;96675.16;;;3.64;100.00
2397;BME280;1209;48.410;9.054;2023-02-21T02:14:48;96665.06;;;3.61;100.00
2397;BME280;1209;48.410;9.054;2023-02-21T02:20:44;96671.59;;;3.11;100.00
2397;BME280;1209;48.410;9.054;2023-02-21T02:28:41;96671.72;;;3.09;100.00
2397;BME280;1209;48.410;9.054;2023-02-21T02:36:41;96667.63;;;3.07;100.00
2397;BME280;1209;48.410;9.054;2023-02-21T02:39:27;96656.00;;;2.79;100.00
2397;BME280;1209;48.410;9.054;2023-02-21T02:42:15;96664.22;;;2.95;100.00
2397;BME280;1209;48.410;9.054;2023-02-21T02:47:50;96671.03;;;2.96;100.00
2397;BME280;1209;48.410;9.054;2023-02-21T02:50:18;96658.00;;;2.98;100.00
2397;BME280;1209;48.410;9.054;2023-02-21T02:52:55;96661.28;;;3.11;100.00
2397;BME280;1209;48.410;9.054;2023-02-21T02:58:01;96662.13;;;3.00;100.00
2397;BME280;1209;48.410;9.054;2023-02-21T03:00:27;96651.44;;;2.71;100.00
2397;BME280;1209;48.410;9.054;2023-02-21T03:09:02;96652.16;;;3.07;100.00
2397;BME280;1209;48.410;9.054;2023-02-21T03:11:30;96656.94;;;3.11;100.00
2397;BME280;1209;48.410;9.054;2023-02-21T03:14:08;96650.03;;;3.01;100.00
2397;BME280;1209;48.410;9.054;2023-02-21T03:17:01;96648.16;;;3.14;100.00
2397;BME280;1209;48.410;9.054;2023-02-21T03:19:29;96649.09;;;3.02;100.00
2397;BME280;1209;48.410;9.054;2023-02-21T03:21:59;96650.16;;;2.88;100.00
2397;BME280;1209;48.410;9.054;2023-02-21T03:24:26;96645.00;;;2.88;100.00
2397;BME280;1209;48.410;9.054;2023-02-21T03:26:56;96653.56;;;2.89;100.00
2397;BME280;1209;48.410;9.054;2023-02-21T03:29:24;96640.31;;;2.93;100.00
2397;BME280;1209;48.410;9.054;2023-02-21T03:31:57;96645.09;;;3.09;100.00
2397;BME280;1209;48.410;9.054;2023-02-21T03:34:35;96641.00;;;3.06;100.00
2397;BME280;1209;48.410;9.054;2023-02-21T03:37:00;96643.94;;;3.02;100.00
2397;BME280;1209;48.410;9.054;2023-02-21T03:39:25;96644.63;;;3.04;100.00
2397;BME280;1209;48.410;9.054;2023-02-21T03:41:51;96638.91;;;2.89;100.00
2397;BME280;1209;48.410;9.054;2023-02-21T03:44:16;96641.47;;;3.00;100.00
2397;BME280;1209;48.410;9.054;2023-02-21T03:46:42;96644.31;;;2.86;100.00
2397;BME280;1209;48.410;9.054;2023-02-21T03:49:07;96637.25;;;2.77;100.00
2397;BME280;1209;48.410;9.054;2023-02-21T03:51:32;96638.78;;;2.91;100.00
2397;BME280;1209;48.410;9.054;2023-02-21T03:53:58;96637.25;;;2.66;100.00
2397;BME280;1209;48.410;9.054;2023-02-21T03:56:23;96637.59;;;2.72;100.00
2397;BME280;1209;48.410;9.054;2023-02-21T03:58:48;96637.50;;;2.85;100.00
2397;BME280;1209;48.410;9.054;2023-02-21T04:01:14;96635.50;;;2.55;100.00
2397;BME280;1209;48.410;9.054;2023-02-21T04:03:39;96630.22;;;2.68;100.00
2397;BME280;1209;48.410;9.054;2023-02-21T04:06:04;96630.44;;;2.76;100.00
2397;BME280;1209;48.410;9.054;2023-02-21T04:08:30;96625.72;;;2.36;100.00
2397;BME280;1209;48.410;9.054;2023-02-21T04:10:55;96633.03;;;2.65;100.00
2397;BME280;1209;48.410;9.054;2023-02-21T04:13:20;96636.31;;;2.67;100.00
2397;BME280;1209;48.410;9.054;2023-02-21T04:15:47;96631.97;;;2.67;100.00
2397;BME280;1209;48.410;9.054;2023-02-21T04:18:13;96626.91;;;2.32;100.00
2397;BME280;1209;48.410;9.054;2023-02-21T04:20:38;96627.41;;;2.37;100.00
2397;BME280;1209;48.410;9.054;2023-02-21T04:23:03;96626.81;;;2.56;100.00
2397;BME280;1209;48.410;9.054;2023-02-21T04:25:28;96626.25;;;2.52;100.00
2397;BME280;1209;48.410;9.054;2023-02-21T04:27:54;96626.72;;;2.58;100.00
2397;BME280;1209;48.410;9.054;2023-02-21T04:30:19;96616.97;;;2.50;100.00
2397;BME280;1209;48.410;9.054;2023-02-21T04:32:44;96625.88;;;2.57;100.00
2397;BME280;1209;48.410;9.054;2023-02-21T04:35:10;96619.78;;;2.69;100.00
2397;BME280;1209;48.410;9.054;2023-02-21T04:37:35;96628.59;;;2.67;100.00
2397;BME280;1209;48.410;9.054;2023-02-21T04:40:00;96617.34;;;2.57;100.00
2397;BME280;1209;48.410;9.054;2023-02-21T04:42:26;96618.38;;;2.65;100.00
2397;BME280;1209;48.410;9.054;2023-02-21T04:44:51;96625.31;;;2.65;100.00
2397;BME280;1209;48.410;9.054;2023-02-21T04:47:16;96615.47;;;2.59;100.00
2397;BME280;1209;48.410;9.054;2023-02-21T04:49:41;96619.22;;;2.66;100.00
2397;BME280;1209;48.410;9.054;2023-02-21T04:52:07;96622.50;;;2.57;100.00
2397;BME280;1209;48.410;9.054;2023-02-21T04:54:32;96625.97;;;2.33;100.00
2397;BME280;1209;48.410;9.054;2023-02-21T04:56:57;96618.66;;;2.05;100.00
2397;BME280;1209;48.410;9.054;2023-02-21T04:59:23;96608.44;;;2.38;100.00
2397;BME280;1209;48.410;9.054;2023-02-21T05:01:48;96618.63;;;2.51;100.00
2397;BME280;1209;48.410;9.054;2023-02-21T05:04:13;96613.19;;;2.32;100.00
2397;BME280;1209;48.410;9.054;2023-02-21T05:06:39;96609.69;;;2.33;100.00
2397;BME280;1209;48.410;9.054;2023-02-21T05:09:04;96610.41;;;2.46;100.00
2397;BME280;1209;48.410;9.054;2023-02-21T05:11:32;96602.72;;;2.00;100.00
2397;BME280;1209;48.410;9.054;2023-02-21T05:14:01;96597.94;;;2.06;100.00
2397;BME280;1209;48.410;9.054;2023-02-21T05:16:27;96600.41;;;2.08;100.00
2397;BME280;1209;48.410;9.054;2023-02-21T05:18:52;96602.63;;;2.12;100.00
2397;BME280;1209;48.410;9.054;2023-02-21T05:21:18;96604.84;;;2.06;100.00
2397;BME280;1209;48.410;9.054;2023-02-21T05:23:45;96609.84;;;1.96;100.00
2397;BME280;1209;48.410;9.054;2023-02-21T05:26:22;96603.66;;;1.99;100.00
2397;BME280;1209;48.410;9.054;2023-02-21T05:28:49;96603.44;;;2.13;100.00
2397;BME280;1209;48.410;9.054;2023-02-21T05:31:14;96598.19;;;2.14;100.00
2397;BME280;1209;48.410;9.054;2023-02-21T05:33:40;96602.03;;;1.98;100.00
2397;BME280;1209;48.410;9.054;2023-02-21T05:36:05;96606.50;;;2.18;100.00
2397;BME280;1209;48.410;9.054;2023-02-21T05:38:30;96614.00;;;2.21;100.00
2397;BME280;1209;48.410;9.054;2023-02-21T05:40:56;96615.88;;;2.19;100.00
2397;BME280;1209;48.410;9.054;2023-02-21T05:43:21;96620.66;;;2.12;100.00
2397;BME280;1209;48.410;9.054;2023-02-21T05:45:47;96624.16;;;2.11;100.00
2397;BME280;1209;48.410;9.054;2023-02-21T05:48:12;96622.78;;;2.18;100.00
2397;BME280;1209;48.410;9.054;2023-02-21T05:50:37;96621.75;;;2.32;100.00
2397;BME280;1209;48.410;9.054;2023-02-21T05:53:04;96623.13;;;2.14;100.00
2397;BME280;1209;48.410;9.054;2023-02-21T05:55:30;96624.19;;;2.22;100.00
2397;BME280;1209;48.410;9.054;2023-02-21T05:57:55;96630.63;;;2.28;100.00
2397;BME280;1209;48.410;9.054;2023-02-21T06:00:23;96632.28;;;2.29;100.00
2397;BME280;1209;48.410;9.054;2023-02-21T06:02:50;96622.69;;;2.31;100.00
2397;BME280;1209;48.410;9.054;2023-02-21T06:05:19;96623.84;;;2.27;100.00
2397;BME280;1209;48.410;9.054;2023-02-21T06:07:46;96627.47;;;2.25;100.00
2397;BME280;1209;48.410;9.054;2023-02-21T06:10:12;96627.00;;;2.31;100.00
2397;BME280;1209;48.410;9.054;2023-02-21T06:12:37;96621.25;;;2.27;100.00
2397;BME280;1209;48.410;9.054;2023-02-21T06:15:02;96622.84;;;2.41;100.00
2397;BME280;1209;48.410;9.054;2023-02-21T06:17:38;96625.06;;;2.45;100.00
2397;BME280;1209;48.410;9.054;2023-02-21T06:20:04;96614.25;;;2.29;100.00
2397;BME280;1209;48.410;9.054;2023-02-21T06:22:29;96612.50;;;2.30;100.00
2397;BME280;1209;48.410;9.054;2023-02-21T06:24:55;96615.09;;;2.41;100.00
2397;BME280;1209;48.410;9.054;2023-02-21T06:27:20;96615.56;;;2.46;100.00
2397;BME280;1209;48.410;9.054;2023-02-21T06:29:45;96620.03;;;2.44;100.00
2397;BME280;1209;48.410;9.054;2023-02-21T06:32:11;96613.78;;;2.35;100.00
2397;BME280;1209;48.410;9.054;2023-02-21T06:34:36;96611.94;;;2.37;100.00
2397;BME280;1209;48.410;9.054;2023-02-21T06:37:01;96610.63;;;2.32;100.00
2397;BME280;1209;48.410;9.054;2023-02-21T06:39:27;96611.72;;;2.40;100.00
2397;BME280;1209;48.410;9.054;2023-02-21T06:41:52;96615.00;;;2.42;100.00
2397;BME280;1209;48.410;9.054;2023-02-21T06:44:18;96616.13;;;2.27;100.00
2397;BME280;1209;48.410;9.054;2023-02-21T06:46:43;96623.13;;;2.25;100.00
2397;BME280;1209;48.410;9.054;2023-02-21T06:49:09;96612.38;;;2.31;100.00
2397;BME280;1209;48.410;9.054;2023-02-21T06:51:36;96618.84;;;2.37;100.00
2397;BME280;1209;48.410;9.054;2023-02-21T06:54:02;96619.66;;;2.37;100.00
2397;BME280;1209;48.410;9.054;2023-02-21T06:56:28;96617.19;;;2.36;100.00
2397;BME280;1209;48.410;9.054;2023-02-21T06:58:53;96620.56;;;2.25;100.00
2397;BME280;1209;48.410;9.054;2023-02-21T07:01:19;96622.41;;;2.12;100.00
2397;BME280;1209;48.410;9.054;2023-02-21T07:03:44;96619.50;;;2.16;100.00
2397;BME280;1209;48.410;9.054;2023-02-21T07:06:11;96625.47;;;2.28;100.00
2397;BME280;1209;48.410;9.054;2023-02-21T07:08:36;96625.25;;;2.20;100.00
2397;BME280;1209;48.410;9.054;2023-02-21T07:11:02;96626.06;;;2.32;100.00
2397;BME280;1209;48.410;9.054;2023-02-21T07:13:27;96623.00;;;2.15;100.00
2397;BME280;1209;48.410;9.054;2023-02-21T07:15:53;96619.88;;;2.34;100.00
2397;BME280;1209;48.410;9.054;2023-02-21T07:18:18;96626.59;;;2.37;100.00
2397;BME280;1209;48.410;9.054;2023-02-21T07:20:43;96630.69;;;2.39;100.00
2397;BME280;1209;48.410;9.054;2023-02-21T07:23:09;96626.59;;;2.48;100.00
2397;BME280;1209;48.410;9.054;2023-02-21T07:25:34;96624.00;;;2.59;100.00
2397;BME280;1209;48.410;9.054;2023-02-21T07:27:59;96613.47;;;2.62;100.00
2397;BME280;1209;48.410;9.054;2023-02-21T07:30:24;96622.38;;;2.69;100.00
2397;BME280;1209;48.410;9.054;2023-02-21T07:32:50;96617.69;;;2.74;100.00
2397;BME280;1209;48.410;9.054;2023-02-21T07:35:15;96617.56;;;2.76;100.00
2397;BME280;1209;48.410;9.054;2023-02-21T07:37:40;96604.19;;;2.82;100.00
2397;BME280;1209;48.410;9.054;2023-02-21T07:40:06;96618.41;;;2.88;100.00
2397;BME280;1209;48.410;9.054;2023-02-21T07:42:32;96605.72;;;2.96;100.00
2397;BME280;1209;48.410;9.054;2023-02-21T07:44:58;96608.78;;;3.01;100.00
2397;BME280;1209;48.410;9.054;2023-02-21T07:47:24;96608.88;;;3.10;100.00
2397;BME280;1209;48.410;9.054;2023-02-21T07:49:50;96607.31;;;3.19;100.00
2397;BME280;1209;48.410;9.054;2023-02-21T07:52:16;96610.47;;;3.34;100.00
2397;BME280;1209;48.410;9.054;2023-02-21T07:54:41;96607.94;;;3.55;100.00
2397;BME280;1209;48.410;9.054;2023-02-21T07:57:06;96605.88;;;3.69;100.00
2397;BME280;1209;48.410;9.054;2023-02-21T07:59:32;96605.03;;;3.80;100.00
2397;BME280;1209;48.410;9.054;2023-02-21T08:01:57;96600.50;;;3.93;100.00
2397;BME280;1209;48.410;9.054;2023-02-21T08:04:23;96601.97;;;4.07;100.00
2397;BME280;1209;48.410;9.054;2023-02-21T08:06:48;96605.16;;;4.20;100.00
2397;BME280;1209;48.410;9.054;2023-02-21T08:09:14;96587.59;;;4.35;100.00
2397;BME280;1209;48.410;9.054;2023-02-21T08:11:39;96593.16;;;4.61;100.00
2397;BME280;1209;48.410;9.054;2023-02-21T08:14:05;96596.66;;;4.81;100.00
2397;BME280;1209;48.410;9.054;2023-02-21T08:16:31;96596.19;;;5.06;100.00
2397;BME280;1209;48.410;9.054;2023-02-21T08:18:56;96594.59;;;5.24;100.00
2397;BME280;1209;48.410;9.054;2023-02-21T08:21:22;96593.81;;;5.43;100.00
2397;BME280;1209;48.410;9.054;2023-02-21T08:23:47;96591.38;;;5.61;100.00
2397;BME280;1209;48.410;9.054;2023-02-21T08:26:13;96594.66;;;5.82;100.00
2397;BME280;1209;48.410;9.054;2023-02-21T08:28:38;96595.50;;;6.02;100.00
2397;BME280;1209;48.410;9.054;2023-02-21T08:31:03;96595.75;;;6.18;100.00
2397;BME280;1209;48.410;9.054;2023-02-21T08:33:29;96598.41;;;6.46;100.00
2397;BME280;1209;48.410;9.054;2023-02-21T08:35:54;96599.25;;;6.83;100.00
2397;BME280;1209;48.410;9.054;2023-02-21T08:38:20;96593.50;;;7.17;100.00
2397;BME280;1209;48.410;9.054;2023-02-21T08:40:45;96598.88;;;7.33;100.00
2397;BME280;1209;48.410;9.054;2023-02-21T08:43:10;96604.50;;;7.29;100.00
2397;BME280;1209;48.410;9.054;2023-02-21T08:45:36;96601.34;;;7.52;100.00
2397;BME280;1209;48.410;9.054;2023-02-21T08:48:02;96607.06;;;7.56;100.00
2397;BME280;1209;48.410;9.054;2023-02-21T08:50:28;96600.94;;;7.75;100.00
2397;BME280;1209;48.410;9.054;2023-02-21T08:52:54;96612.44;;;7.90;100.00
2397;BME280;1209;48.410;9.054;2023-02-21T08:55:20;96612.06;;;8.20;100.00
2397;BME280;1209;48.410;9.054;2023-02-21T08:57:50;96606.69;;;8.40;100.00
2397;BME280;1209;48.410;9.054;2023-02-21T09:00:17;96606.03;;;8.98;100.00
2397;BME280;1209;48.410;9.054;2023-02-21T09:02:43;96617.06;;;9.18;100.00
2397;BME280;1209;48.410;9.054;2023-02-21T09:05:19;96604.50;;;9.63;100.00
2397;BME280;1209;48.410;9.054;2023-02-21T09:07:48;96605.66;;;9.85;100.00
2397;BME280;1209;48.410;9.054;2023-02-21T09:10:13;96610.94;;;10.42;98.11
2397;BME280;1209;48.410;9.054;2023-02-21T09:12:39;96608.44;;;10.73;96.06
2397;BME280;1209;48.410;9.054;2023-02-21T09:15:05;96603.38;;;10.71;96.46
2397;BME280;1209;48.410;9.054;2023-02-21T09:17:31;96604.25;;;11.11;91.42
2397;BME280;1209;48.410;9.054;2023-02-21T09:20:07;96610.06;;;11.60;88.73
2397;BME280;1209;48.410;9.054;2023-02-21T09:22:33;96607.38;;;11.46;87.91
2397;BME280;1209;48.410;9.054;2023-02-21T09:24:59;96601.75;;;11.57;88.29
2397;BME280;1209;48.410;9.054;2023-02-21T09:27:25;96599.66;;;12.06;83.92
2397;BME280;1209;48.410;9.054;2023-02-21T09:30:11;96600.97;;;11.79;86.23
2397;BME280;1209;48.410;9.054;2023-02-21T09:32:38;96598.78;;;12.51;83.61
2397;BME280;1209;48.410;9.054;2023-02-21T09:35:04;96600.00;;;12.93;78.69
2397;BME280;1209;48.410;9.054;2023-02-21T09:37:30;96601.09;;;13.13;76.11
2397;BME280;1209;48.410;9.054;2023-02-21T09:39:56;96601.72;;;13.01;79.13
2397;BME280;1209;48.410;9.054;2023-02-21T09:42:27;96595.03;;;12.83;81.35
2397;BME280;1209;48.410;9.054;2023-02-21T09:44:53;96592.06;;;13.01;80.52
2397;BME280;1209;48.410;9.054;2023-02-21T09:47:30;96594.66;;;13.45;79.03
2397;BME280;1209;48.410;9.054;2023-02-21T09:50:03;96581.56;;;13.67;79.02
2397;BME280;1209;48.410;9.054;2023-02-21T09:52:35;96589.19;;;13.62;81.11
2397;BME280;1209;48.410;9.054;2023-02-21T09:55:06;96587.91;;;13.94;78.39
2397;BME280;1209;48.410;9.054;2023-02-21T09:57:33;96585.16;;;14.02;76.96
2397;BME280;1209;48.410;9.054;2023-02-21T09:59:59;96589.16;;;14.40;75.45
2397;BME280;1209;48.410;9.054;2023-02-21T10:05:17;96593.09;;;14.51;72.40
2397;BME280;1209;48.410;9.054;2023-02-21T10:10:29;96580.34;;;14.76;71.06
2397;BME280;1209;48.410;9.054;2023-02-21T10:13:09;96578.94;;;14.80;70.10
2397;BME280;1209;48.410;9.054;2023-02-21T10:15:47;96573.56;;;14.39;75.33
2397;BME280;1209;48.410;9.054;2023-02-21T10:21:29;96587.59;;;15.08;68.58
2397;BME280;1209;48.410;9.054;2023-02-21T10:23:57;96574.06;;;15.11;63.53
2397;BME280;1209;48.410;9.054;2023-02-21T10:26:30;96569.91;;;15.78;62.77
2397;BME280;1209;48.410;9.054;2023-02-21T10:28:59;96582.50;;;16.02;62.02
2397;BME280;1209;48.410;9.054;2023-02-21T10:31:31;96582.09;;;16.05;61.71
2397;BME280;1209;48.410;9.054;2023-02-21T10:33:58;96578.28;;;16.34;61.58
2397;BME280;1209;48.410;9.054;2023-02-21T10:36:24;96584.56;;;16.47;60.17
2397;BME280;1209;48.410;9.054;2023-02-21T10:38:57;96576.06;;;16.58;59.25
2397;BME280;1209;48.410;9.054;2023-02-21T10:41:24;96575.22;;;16.64;58.83
2397;BME280;1209;48.410;9.054;2023-02-21T10:43:55;96573.00;;;16.48;58.35
2397;BME280;1209;48.410;9.054;2023-02-21T10:46:28;96572.78;;;16.36;59.46
2397;BME280;1209;48.410;9.054;2023-02-21T10:49:16;96570.16;;;16.49;59.22
2397;BME280;1209;48.410;9.054;2023-02-21T10:51:44;96565.91;;;16.75;56.78
2397;BME280;1209;48.410;9.054;2023-02-21T10:54:22;96569.53;;;16.80;57.40
2397;BME280;1209;48.410;9.054;2023-02-21T10:56:48;96567.91;;;16.92;55.17
2397;BME280;1209;48.410;9.054;2023-02-21T10:59:22;96555.34;;;16.61;55.08
2397;BME280;1209;48.410;9.054;2023-02-21T11:01:49;96544.94;;;17.06;55.17
2397;BME280;1209;48.410;9.054;2023-02-21T11:06:55;96546.59;;;17.45;53.34
2397;BME280;1209;48.410;9.054;2023-02-21T11:09:38;96541.88;;;17.60;52.81
2397;BME280;1209;48.410;9.054;2023-02-21T11:12:26;96540.38;;;17.26;53.61
2397;BME280;1209;48.410;9.054;2023-02-21T11:17:27;96531.75;;;17.51;53.24
2397;BME280;1209;48.410;9.054;2023-02-21T11:22:35;96524.44;;;17.46;52.65
2397;BME280;1209;48.410;9.054;2023-02-21T11:30:24;96513.44;;;17.56;51.06
2397;BME280;1209;48.410;9.054;2023-02-21T11:32:55;96508.38;;;17.54;51.57
2397;BME280;1209;48.410;9.054;2023-02-21T11:35:25;96504.97;;;17.41;52.70
2397;BME280;1209;48.410;9.054;2023-02-21T11:38:00;96499.00;;;17.20;51.64
2397;BME280;1209;48.410;9.054;2023-02-21T11:45:36;96491.53;;;17.11;53.04
2397;BME280;1209;48.410;9.054;2023-02-21T11:48:12;96482.84;;;16.97;54.43
2397;BME280;1209;48.410;9.054;2023-02-21T11:50:42;96475.91;;;17.03;55.92
2397;BME280;1209;48.410;9.054;2023-02-21T11:55:57;96467.09;;;16.77;55.66
2397;BME280;1209;48.410;9.054;2023-02-21T11:58:48;96465.28;;;16.71;54.86
2397;BME280;1209;48.410;9.054;2023-02-21T12:01:26;96453.03;;;16.90;54.96
2397;BME280;1209;48.410;9.054;2023-02-21T12:04:24;96448.72;;;17.09;55.20
2397;BME280;1209;48.410;9.054;2023-02-21T12:06:56;96447.31;;;16.99;55.83
2397;BME280;1209;48.410;9.054;2023-02-21T12:14:43;96438.59;;;16.99;55.16
2397;BME280;1209;48.410;9.054;2023-02-21T12:31:22;96411.38;;;16.98;55.17
2397;BME280;1209;48.410;9.054;2023-02-21T12:34:17;96397.22;;;16.93;53.53
2397;BME280;1209;48.410;9.054;2023-02-21T12:36:52;96408.09;;;17.10;54.21
2397;BME280;1209;48.410;9.054;2023-02-21T12:39:41;96398.44;;;16.90;54.14
2397;BME280;1209;48.410;9.054;2023-02-21T12:50:29;96371.00;;;17.05;53.61
2397;BME280;1209;48.410;9.054;2023-02-21T12:53:00;96369.97;;;17.06;53.19
2397;BME280;1209;48.410;9.054;2023-02-21T12:55:35;96368.34;;;17.05;52.81
2397;BME280;1209;48.410;9.054;2023-02-21T12:58:10;96363.06;;;17.05;53.33
2397;BME280;1209;48.410;9.054;2023-02-21T13:00:49;96366.47;;;17.12;53.70
2397;BME280;1209;48.410;9.054;2023-02-21T13:03:32;96354.63;;;17.21;53.23
2397;BME280;1209;48.410;9.054;2023-02-21T13:11:48;96344.34;;;17.13;52.60
2397;BME280;1209;48.410;9.054;2023-02-21T13:14:33;96338.41;;;17.17;52.18
2397;BME280;1209;48.410;9.054;2023-02-21T13:17:01;96329.38;;;17.00;52.77
2397;BME280;1209;48.410;9.054;2023-02-21T13:19:34;96322.19;;;16.82;53.08
2397;BME280;1209;48.410;9.054;2023-02-21T13:28:23;96310.16;;;16.93;54.03
2397;BME280;1209;48.410;9.054;2023-02-21T13:30:57;96302.25;;;16.93;53.98
2397;BME280;1209;48.410;9.054;2023-02-21T13:33:27;96305.03;;;17.05;54.28
2397;BME280;1209;48.410;9.054;2023-02-21T13:35:58;96298.19;;;16.90;53.95
2397;BME280;1209;48.410;9.054;2023-02-21T13:38:26;96290.28;;;16.90;53.37
2397;BME280;1209;48.410;9.054;2023-02-21T13:41:04;96286.78;;;16.96;54.12
2397;BME280;1209;48.410;9.054;2023-02-21T13:43:32;96285.94;;;17.03;54.08
2397;BME280;1209;48.410;9.054;2023-02-21T13:57:34;96267.50;;;16.96;52.68
2397;BME280;1209;48.410;9.054;2023-02-21T14:08:28;96252.66;;;17.02;52.66
2397;BME280;1209;48.410;9.054;2023-02-21T14:10:58;96245.88;;;16.87;53.18
2397;BME280;1209;48.410;9.054;2023-02-21T14:18:54;96242.16;;;16.95;53.07
2397;BME280;1209;48.410;9.054;2023-02-21T14:21:31;96242.16;;;16.95;52.44
2397;BME280;1209;48.410;9.054;2023-02-21T14:24:00;96236.22;;;16.99;52.59
2397;BME280;1209;48.410;9.054;2023-02-21T14:32:15;96236.63;;;17.03;52.43
2397;BME280;1209;48.410;9.054;2023-02-21T14:37:37;96235.09;;;16.89;53.61
2397;BME280;1209;48.410;9.054;2023-02-21T14:46:11;96221.31;;;16.87;54.43
2397;BME280;1209;48.410;9.054;2023-02-21T15:00:58;96210.66;;;17.00;54.27
2397;BME280;1209;48.410;9.054;2023-02-21T15:05:41;96212.91;;;16.96;53.96
2397;BME280;1209;48.410;9.054;2023-02-21T15:08:18;96209.97;;;17.11;52.73
2397;BME280;1209;48.410;9.054;2023-02-21T15:10:46;96202.56;;;16.95;53.48
2397;BME280;1209;48.410;9.054;2023-02-21T15:13:22;96202.19;;;16.91;53.94
2397;BME280;1209;48.410;9.054;2023-02-21T15:15:55;96201.59;;;16.89;53.88
2397;BME280;1209;48.410;9.054;2023-02-21T15:18:32;96202.63;;;16.88;53.06
2397;BME280;1209;48.410;9.054;2023-02-21T15:23:32;96202.00;;;16.68;54.48
2397;BME280;1209;48.410;9.054;2023-02-21T15:26:01;96198.19;;;16.57;53.73
2397;BME280;1209;48.410;9.054;2023-02-21T15:28:39;96192.84;;;16.64;53.89
2397;BME280;1209;48.410;9.054;2023-02-21T15:31:07;96196.34;;;16.89;53.16
2397;BME280;1209;48.410;9.054;2023-02-21T15:33:35;96197.09;;;16.72;54.49
2397;BME280;1209;48.410;9.054;2023-02-21T15:36:16;96195.59;;;16.82;54.98
2397;BME280;1209;48.410;9.054;2023-02-21T15:41:27;96186.19;;;18.09;51.34
2397;BME280;1209;48.410;9.054;2023-02-21T15:46:43;96185.56;;;17.34;52.61
2397;BME280;1209;48.410;9.054;2023-02-21T15:49:16;96178.84;;;16.95;54.28
2397;BME280;1209;48.410;9.054;2023-02-21T15:51:44;96174.78;;;17.17;53.54
2397;BME280;1209;48.410;9.054;2023-02-21T15:54:30;96180.59;;;17.01;53.60
2397;BME280;1209;48.410;9.054;2023-02-21T15:59:34;96183.56;;;16.55;55.35
2397;BME280;1209;48.410;9.054;2023-02-21T16:04:37;96173.75;;;16.37;56.14
2397;BME280;1209;48.410;9.054;2023-02-21T16:07:04;96174.16;;;16.41;55.58
2397;BME280;1209;48.410;9.054;2023-02-21T16:09:32;96171.38;;;15.91;57.20
2397;BME280;1209;48.410;9.054;2023-02-21T16:17:37;96170.97;;;15.29;60.45
2397;BME280;1209;48.410;9.054;2023-02-21T16:20:18;96163.47;;;15.13;60.71
2397;BME280;1209;48.410;9.054;2023-02-21T16:22:48;96165.53;;;15.04;61.12
2397;BME280;1209;48.410;9.054;2023-02-21T16:25:22;96163.09;;;15.03;61.52
2397;BME280;1209;48.410;9.054;2023-02-21T16:27:51;96168.38;;;14.96;62.30
2397;BME280;1209;48.410;9.054;2023-02-21T16:30:22;96167.97;;;14.86;64.07
2397;BME280;1209;48.410;9.054;2023-02-21T16:32:50;96170.03;;;14.71;65.28
2397;BME280;1209;48.410;9.054;2023-02-21T16:35:21;96179.50;;;14.65;66.23